Time;durP1;ratioP1;P1;durP2;ratioP2;P2;SDS_P1;SDS_P2;PMS_P1;PMS_P2;Temp;Humidity;BMP_temperature;BMP_pressure;BME280_temperature;BME280_humidity;BME280_pressure;Samples;Min_cycle;Max_cycle;Signal;HPM_P1;HPM_P2
2022/08/06 00:01:49;;;;;;;;;1.33;1.33;;;;;21.47;37.87;102240.97;5089782;27;45401;-70
2022/08/06 00:04:15;;;;;;;;;1.33;1.33;;;;;21.35;38.05;102240.50;5097413;27;45726;-70
2022/08/06 00:06:40;;;;;;;;;1.67;1.00;;;;;21.46;37.80;102239.25;5101111;27;45159;-70
2022/08/06 00:09:06;;;;;;;;;5.33;4.00;;;;;21.41;38.41;102248.06;5092316;27;45368;-70
2022/08/06 00:11:31;;;;;;;;;2.00;2.00;;;;;21.43;38.09;102242.34;5085674;27;46216;-69
2022/08/06 00:13:57;;;;;;;;;2.67;1.00;;;;;21.33;38.21;102245.38;5099364;27;45262;-70
2022/08/06 00:16:22;;;;;;;;;1.00;1.00;;;;;21.45;38.15;102254.97;5072389;27;45305;-70
2022/08/06 00:18:48;;;;;;;;;0.67;0.67;;;;;21.41;38.20;102250.81;5095245;27;45556;-70
2022/08/06 00:21:13;;;;;;;;;2.33;1.00;;;;;21.18;39.46;102256.34;5093109;27;45868;-70
2022/08/06 00:23:38;;;;;;;;;3.00;3.00;;;;;21.16;39.36;102246.47;5079084;27;45491;-70
2022/08/06 00:26:04;;;;;;;;;1.00;1.00;;;;;21.04;39.79;102250.69;5091891;27;45357;-70
2022/08/06 00:28:29;;;;;;;;;3.00;3.00;;;;;21.04;40.00;102251.53;5098201;27;45379;-70
2022/08/06 00:30:55;;;;;;;;;0.67;0.67;;;;;21.19;39.12;102240.59;5087861;27;46435;-70
2022/08/06 00:33:20;;;;;;;;;2.00;2.00;;;;;21.14;39.48;102240.25;5092704;27;45324;-70
2022/08/06 00:35:45;;;;;;;;;7.00;3.33;;;;;21.01;40.44;102251.06;5074716;27;45279;-70
2022/08/06 00:38:12;;;;;;;;;2.33;2.33;;;;;21.02;40.16;102250.88;5092051;27;45380;-70
2022/08/06 00:40:37;;;;;;;;;2.33;1.67;;;;;20.98;40.78;102258.66;5102256;27;45415;-70
2022/08/06 00:43:04;;;;;;;;;6.00;3.00;;;;;21.10;40.30;102266.56;5093441;27;45345;-70
2022/08/06 00:45:33;;;;;;;;;2.33;2.33;;;;;21.09;40.41;102260.16;5074574;28;45356;-70
2022/08/06 00:48:00;;;;;;;;;2.00;2.00;;;;;21.11;40.53;102263.63;5095311;27;45735;-70
2022/08/06 00:50:26;;;;;;;;;5.33;4.00;;;;;21.04;40.60;102261.75;5084464;28;47131;-70
2022/08/06 00:52:52;;;;;;;;;2.67;2.67;;;;;20.99;40.61;102268.66;5098131;27;45400;-70
2022/08/06 00:55:17;;;;;;;;;2.00;2.00;;;;;21.00;40.86;102261.25;5095666;27;45325;-70
2022/08/06 00:57:42;;;;;;;;;1.33;1.33;;;;;20.90;40.70;102266.09;5097566;27;45539;-70
2022/08/06 01:00:08;;;;;;;;;1.33;1.33;;;;;20.97;40.86;102273.50;5094074;27;45480;-70
2022/08/06 01:02:34;;;;;;;;;2.00;2.00;;;;;20.85;41.82;102263.91;5098546;27;45412;-70
2022/08/06 01:04:59;;;;;;;;;2.67;0.67;;;;;20.93;41.48;102272.16;5094471;27;45258;-69
2022/08/06 01:07:25;;;;;;;;;1.00;1.00;;;;;20.94;41.62;102284.06;5095364;27;45422;-70
2022/08/06 01:09:50;;;;;;;;;2.00;2.00;;;;;20.92;41.52;102273.19;5091583;27;46277;-70
2022/08/06 01:12:16;;;;;;;;;1.33;1.33;;;;;20.94;41.44;102265.59;5094136;27;45432;-70
2022/08/06 01:14:42;;;;;;;;;2.00;1.00;;;;;20.89;41.75;102259.72;5096213;27;45312;-70
2022/08/06 01:17:19;;;;;;;;;2.67;2.67;;;;;20.75;42.18;102265.16;5092758;27;45526;-70
2022/08/06 01:19:47;;;;;;;;;4.00;1.33;;;;;20.85;41.53;102272.19;5094709;27;46542;-70
2022/08/06 01:22:47;;;;;;;;;1.33;1.33;;;;;20.95;41.41;102271.97;5092792;27;45374;-70
2022/08/06 01:25:18;;;;;;;;;0.67;0.67;;;;;20.94;41.44;102278.53;5092341;27;45266;-70
2022/08/06 01:27:57;;;;;;;;;1.00;1.00;;;;;20.79;42.32;102285.84;5096779;27;45354;-69
2022/08/06 01:30:29;;;;;;;;;1.67;1.67;;;;;20.71;42.92;102278.44;5090408;27;45415;-67
2022/08/06 01:33:18;;;;;;;;;2.00;2.00;;;;;20.72;42.30;102279.31;5102307;27;45436;-68
2022/08/06 01:35:50;;;;;;;;;1.67;1.67;;;;;20.61;43.10;102288.81;5068755;28;45285;-68
2022/08/06 01:38:29;;;;;;;;;1.00;1.00;;;;;20.59;42.24;102275.22;5099918;27;45339;-68
2022/08/06 01:40:59;;;;;;;;;2.33;1.33;;;;;20.61;43.15;102280.53;5085998;27;46382;-71
2022/08/06 01:43:27;;;;;;;;;4.00;2.67;;;;;20.70;42.75;102284.16;5101352;27;45341;-70
2022/08/06 01:45:55;;;;;;;;;2.00;2.00;;;;;20.59;43.83;102274.34;5087196;27;45359;-68
2022/08/06 01:48:24;;;;;;;;;3.67;2.67;;;;;20.43;44.31;102271.63;5096245;27;45618;-70
2022/08/06 01:50:54;;;;;;;;;2.00;2.00;;;;;20.39;44.02;102278.53;5087928;27;45204;-70
2022/08/06 01:53:25;;;;;;;;;2.00;2.00;;;;;20.36;44.82;102278.91;5081681;27;45514;-70
2022/08/06 01:55:53;;;;;;;;;3.00;2.00;;;;;20.13;44.75;102275.97;5070297;27;45467;-68
2022/08/06 01:58:26;;;;;;;;;1.00;1.00;;;;;20.19;45.17;102278.88;5097801;27;45404;-67
2022/08/06 02:00:54;;;;;;;;;1.67;1.67;;;;;20.14;45.52;102285.97;5088771;27;45549;-70
2022/08/06 02:03:26;;;;;;;;;2.00;2.00;;;;;20.04;45.50;102286.13;5097592;27;45473;-70
2022/08/06 02:05:54;;;;;;;;;5.00;1.33;;;;;19.99;46.12;102277.53;5071150;27;45298;-67
2022/08/06 02:08:22;;;;;;;;;3.00;3.00;;;;;19.80;46.73;102280.59;5096968;27;45689;-67
2022/08/06 02:10:51;;;;;;;;;2.67;2.67;;;;;19.83;46.83;102269.25;5073407;27;48273;-67
2022/08/06 02:13:20;;;;;;;;;3.67;3.00;;;;;19.84;46.77;102273.72;5074880;27;45475;-68
2022/08/06 02:15:48;;;;;;;;;2.00;2.00;;;;;19.75;47.03;102280.25;5073031;27;45373;-68
2022/08/06 02:18:17;;;;;;;;;3.00;3.00;;;;;19.72;47.59;102277.88;5101053;27;45452;-67
2022/08/06 02:20:47;;;;;;;;;3.00;3.00;;;;;19.78;47.57;102285.44;5086920;27;45616;-68
2022/08/06 02:23:19;;;;;;;;;2.00;2.00;;;;;19.80;46.77;102278.72;5098098;27;45456;-68
2022/08/06 02:25:47;;;;;;;;;3.00;3.00;;;;;19.81;46.86;102280.44;5086070;27;45393;-68
2022/08/06 02:28:15;;;;;;;;;3.00;3.00;;;;;19.69;47.67;102280.94;5099986;27;45611;-68
2022/08/06 02:30:44;;;;;;;;;3.00;3.00;;;;;19.67;47.69;102271.97;5084535;27;45321;-68
2022/08/06 02:33:11;;;;;;;;;3.33;2.67;;;;;19.60;48.45;102270.94;5097785;27;45400;-69
2022/08/06 02:35:43;;;;;;;;;2.67;2.00;;;;;19.72;47.66;102280.63;5086914;27;45310;-70
2022/08/06 02:38:17;;;;;;;;;3.67;3.00;;;;;19.62;48.24;102277.16;5097196;27;45377;-70
2022/08/06 02:40:51;;;;;;;;;4.00;2.00;;;;;19.58;47.80;102281.31;5097142;27;45516;-69
2022/08/06 02:43:22;;;;;;;;;2.00;2.00;;;;;19.54;48.58;102278.00;5102936;27;45310;-69
2022/08/06 02:46:03;;;;;;;;;3.00;2.00;;;;;19.54;48.53;102283.53;5099097;27;45414;-69
2022/08/06 02:48:38;;;;;;;;;3.00;3.00;;;;;19.64;47.85;102280.63;5100277;27;45569;-70
2022/08/06 02:51:09;;;;;;;;;3.00;3.00;;;;;19.52;48.88;102273.69;5089117;27;45774;-70
2022/08/06 02:53:44;;;;;;;;;2.00;2.00;;;;;19.48;49.22;102270.41;5100894;27;45245;-70
2022/08/06 02:56:12;;;;;;;;;2.33;2.33;;;;;19.57;49.14;102279.56;5088028;27;45401;-70
2022/08/06 02:58:45;;;;;;;;;2.00;2.00;;;;;19.66;47.97;102273.88;5076687;27;45359;-68
2022/08/06 03:01:22;;;;;;;;;5.33;4.67;;;;;19.57;48.77;102272.16;5086574;27;45383;-68
2022/08/06 03:03:50;;;;;;;;;3.00;3.00;;;;;19.60;48.96;102281.97;5102054;27;45423;-69
2022/08/06 03:06:19;;;;;;;;;4.00;3.00;;;;;19.69;48.47;102280.94;5079374;27;45389;-68
2022/08/06 03:08:45;;;;;;;;;3.00;3.00;;;;;19.67;47.75;102271.97;5102309;27;45430;-69
2022/08/06 03:11:13;;;;;;;;;2.00;2.00;;;;;19.65;48.94;102276.84;5083486;27;45397;-68
2022/08/06 03:13:41;;;;;;;;;2.00;2.00;;;;;19.59;48.84;102266.47;5083285;27;45484;-68
2022/08/06 03:16:07;;;;;;;;;3.00;2.00;;;;;19.51;49.46;102271.97;5095613;27;45219;-68
2022/08/06 03:18:35;;;;;;;;;1.00;1.00;;;;;19.55;47.91;102270.59;5098503;27;45565;-68
2022/08/06 03:21:02;;;;;;;;;2.67;2.00;;;;;19.53;48.92;102267.16;5083642;27;46380;-68
2022/08/06 03:23:30;;;;;;;;;4.00;2.00;;;;;19.35;49.80;102273.66;5095339;27;45452;-68
2022/08/06 03:25:57;;;;;;;;;5.33;4.00;;;;;19.28;49.39;102269.84;5089044;27;45410;-68
2022/08/06 03:28:25;;;;;;;;;4.00;2.00;;;;;19.31;49.17;102261.22;5100230;27;46296;-68
2022/08/06 03:30:51;;;;;;;;;2.00;2.00;;;;;19.32;49.35;102262.94;5085914;27;46346;-68
2022/08/06 03:33:19;;;;;;;;;2.00;2.00;;;;;19.40;49.49;102271.22;5094388;27;45368;-68
2022/08/06 03:35:45;;;;;;;;;3.00;3.00;;;;;19.25;50.52;102269.31;5089318;27;45413;-68
2022/08/06 03:38:12;;;;;;;;;3.00;3.00;;;;;19.27;50.15;102273.63;5095245;27;45532;-68
2022/08/06 03:40:44;;;;;;;;;3.00;1.67;;;;;19.32;50.51;102273.09;5085132;27;47424;-68
2022/08/06 03:43:10;;;;;;;;;2.00;2.00;;;;;19.23;50.39;102269.47;5095742;27;45476;-68
2022/08/06 03:45:42;;;;;;;;;3.00;3.00;;;;;19.20;50.54;102267.06;5092596;27;45381;-68
2022/08/06 03:48:14;;;;;;;;;4.00;2.33;;;;;19.15;51.36;102266.69;5096388;27;45320;-68
2022/08/06 03:50:44;;;;;;;;;2.00;2.00;;;;;19.13;51.09;102267.91;5073795;28;48128;-68
2022/08/06 03:53:24;;;;;;;;;4.00;4.00;;;;;19.09;51.88;102272.88;5094622;27;45469;-68
2022/08/06 03:55:52;;;;;;;;;3.00;3.00;;;;;19.14;51.23;102267.69;5070244;28;45288;-68
2022/08/06 03:58:19;;;;;;;;;5.67;4.67;;;;;19.10;50.88;102262.72;5094512;27;45286;-68
2022/08/06 04:00:50;;;;;;;;;1.00;1.00;;;;;19.05;50.56;102272.34;5087651;27;46800;-68
2022/08/06 04:03:17;;;;;;;;;3.33;3.33;;;;;19.13;50.65;102267.91;5097712;27;45235;-68
2022/08/06 04:05:44;;;;;;;;;5.67;4.33;;;;;19.10;50.30;102268.22;5086782;27;45408;-68
2022/08/06 04:08:10;;;;;;;;;2.00;2.00;;;;;19.05;51.00;102272.34;5081235;27;45582;-68
2022/08/06 04:10:42;;;;;;;;;4.00;3.00;;;;;19.03;51.17;102273.53;5086001;27;45410;-68
2022/08/06 04:13:10;;;;;;;;;4.00;4.00;;;;;18.97;51.38;102280.59;5097745;27;45332;-68
2022/08/06 04:15:37;;;;;;;;;1.00;1.00;;;;;18.86;51.16;102277.25;5095357;27;45467;-68
2022/08/06 04:18:08;;;;;;;;;5.00;2.00;;;;;18.91;51.41;102285.91;5095700;27;45354;-68
2022/08/06 04:20:35;;;;;;;;;3.00;3.00;;;;;18.97;51.32;102285.22;5082801;27;46394;-68
2022/08/06 04:23:01;;;;;;;;;2.67;2.67;;;;;18.95;51.50;102282.63;5095401;27;45326;-68
2022/08/06 04:25:32;;;;;;;;;5.33;3.67;;;;;18.92;51.89;102298.63;5072510;27;45564;-68
2022/08/06 04:27:59;;;;;;;;;3.33;3.00;;;;;19.00;51.19;102290.38;5096298;27;45383;-69
2022/08/06 04:30:29;;;;;;;;;3.00;3.00;;;;;19.04;50.88;102286.28;5087376;27;45464;-69
2022/08/06 04:32:55;;;;;;;;;3.00;3.00;;;;;19.01;50.01;102286.59;5100064;27;45460;-68
2022/08/06 04:35:21;;;;;;;;;3.00;3.00;;;;;18.87;50.63;102298.25;5087735;27;45305;-69
2022/08/06 04:37:47;;;;;;;;;2.67;2.67;;;;;18.70;51.25;102301.97;5091604;27;45406;-69
2022/08/06 04:40:13;;;;;;;;;4.67;4.67;;;;;18.60;51.62;102297.44;5079928;27;47848;-68
2022/08/06 04:42:39;;;;;;;;;2.00;2.00;;;;;18.76;51.24;102304.94;5102410;27;45401;-69
2022/08/06 04:45:07;;;;;;;;;2.00;2.00;;;;;18.74;51.14;102308.84;5101803;27;45336;-69
2022/08/06 04:47:32;;;;;;;;;4.00;3.00;;;;;18.81;51.02;102312.69;5092793;27;45884;-68
2022/08/06 04:49:58;;;;;;;;;2.00;2.00;;;;;18.85;50.69;102314.94;5094955;27;45459;-68
2022/08/06 04:52:25;;;;;;;;;2.67;2.67;;;;;18.94;50.08;102318.59;5091876;27;45335;-69
2022/08/06 04:54:51;;;;;;;;;2.67;2.67;;;;;18.96;50.82;102327.56;5093250;27;45210;-68
2022/08/06 04:57:16;;;;;;;;;4.00;4.00;;;;;18.86;51.74;102321.31;5092432;27;45520;-68
2022/08/06 04:59:41;;;;;;;;;4.00;2.67;;;;;18.88;50.81;102325.63;5089065;27;46748;-70
2022/08/06 05:02:07;;;;;;;;;4.00;3.00;;;;;18.85;51.12;102336.97;5088805;27;45342;-70
2022/08/06 05:04:33;;;;;;;;;2.67;2.67;;;;;19.04;50.36;102333.13;5095581;27;45248;-70
2022/08/06 05:07:20;;;;;;;;;4.67;2.67;;;;;18.96;50.81;102349.59;5075899;27;45415;-68
2022/08/06 05:09:48;;;;;;;;;3.00;3.00;;;;;19.00;50.35;102342.72;5086259;27;46385;-68
2022/08/06 05:12:21;;;;;;;;;3.33;3.33;;;;;18.90;50.59;102333.75;5089824;27;45549;-68
2022/08/06 05:14:56;;;;;;;;;5.00;3.00;;;;;18.83;51.17;102338.19;5102439;27;45401;-68
2022/08/06 05:17:29;;;;;;;;;3.33;3.33;;;;;18.85;51.05;102338.88;5089833;27;45487;-69
2022/08/06 05:20:09;;;;;;;;;3.00;3.00;;;;;18.98;50.69;102348.41;5089813;27;45584;-68
2022/08/06 05:22:36;;;;;;;;;3.67;3.00;;;;;19.07;50.77;102353.97;5092131;27;45263;-69
2022/08/06 05:25:03;;;;;;;;;3.33;3.00;;;;;19.34;49.50;102343.56;5093713;27;45498;-69
2022/08/06 05:27:29;;;;;;;;;4.00;2.00;;;;;19.42;48.87;102346.38;5092419;27;45176;-69
2022/08/06 05:29:55;;;;;;;;;5.00;4.00;;;;;19.42;48.91;102339.97;5090856;27;46028;-69
2022/08/06 05:32:21;;;;;;;;;4.00;4.00;;;;;19.53;48.28;102341.56;5089654;27;45440;-69
2022/08/06 05:34:46;;;;;;;;;5.00;5.00;;;;;19.24;49.28;102341.97;5093435;27;45508;-69
2022/08/06 05:37:12;;;;;;;;;3.00;3.00;;;;;19.35;48.52;102350.81;5095091;27;45329;-69
2022/08/06 05:39:37;;;;;;;;;2.67;2.67;;;;;19.25;48.71;102349.22;5084108;27;47046;-70
2022/08/06 05:42:03;;;;;;;;;2.00;2.00;;;;;19.32;48.24;102350.28;5093179;27;45382;-69
2022/08/06 05:44:28;;;;;;;;;4.00;4.00;;;;;19.37;48.21;102347.88;5092673;27;45345;-70
2022/08/06 05:47:04;;;;;;;;;4.00;4.00;;;;;19.73;47.39;102348.50;5092348;27;45312;-69
2022/08/06 05:49:37;;;;;;;;;4.33;2.00;;;;;21.04;45.63;102351.03;5101275;27;45317;-69
2022/08/06 05:52:19;;;;;;;;;2.00;2.00;;;;;23.48;39.08;102349.91;5092725;27;45441;-69
2022/08/06 05:54:50;;;;;;;;;2.00;2.00;;;;;23.65;37.99;102348.63;5093178;27;45311;-69
2022/08/06 05:57:23;;;;;;;;;2.00;2.00;;;;;22.89;39.17;102363.78;5070958;27;45621;-69
2022/08/06 06:00:00;;;;;;;;;3.00;3.00;;;;;22.09;40.63;102369.84;5093517;27;45524;-70
2022/08/06 06:02:28;;;;;;;;;3.67;3.67;;;;;21.53;41.74;102368.31;5076658;27;45470;-68
2022/08/06 06:04:54;;;;;;;;;2.33;2.33;;;;;21.12;42.13;102355.66;5092643;27;45282;-69
2022/08/06 06:07:20;;;;;;;;;2.00;2.00;;;;;21.10;42.51;102368.81;5094759;27;45454;-68
2022/08/06 06:09:46;;;;;;;;;4.00;3.00;;;;;20.89;42.64;102364.69;5093051;27;46316;-68
2022/08/06 06:12:12;;;;;;;;;3.67;2.67;;;;;20.73;43.48;102366.66;5092639;27;45519;-68
2022/08/06 06:14:43;;;;;;;;;2.33;2.33;;;;;20.66;43.87;102362.88;5094063;27;45251;-69
2022/08/06 06:17:37;;;;;;;;;2.33;2.33;;;;;20.62;43.88;102367.88;5088990;27;45445;-68
2022/08/06 06:20:12;;;;;;;;;2.00;2.00;;;;;20.55;43.92;102361.34;5081712;27;47787;-68
2022/08/06 06:22:56;;;;;;;;;4.67;3.33;;;;;20.55;44.01;102361.34;5099824;27;46241;-69
2022/08/06 06:25:45;;;;;;;;;1.33;1.33;;;;;20.26;44.14;102361.84;5076380;28;45383;-69
2022/08/06 06:28:29;;;;;;;;;1.67;1.33;;;;;20.93;43.42;102366.09;5101594;27;45490;-69
2022/08/06 06:31:06;;;;;;;;;4.00;4.00;;;;;21.15;42.51;102339.59;5068183;28;47286;-69
2022/08/06 06:33:44;;;;;;;;;4.00;4.00;;;;;21.68;41.38;102365.63;5095518;27;45305;-69
2022/08/06 06:36:32;;;;;;;;;2.67;2.67;;;;;21.80;40.98;102363.28;5073535;27;45407;-69
2022/08/06 06:39:08;;;;;;;;;3.33;3.33;;;;;21.27;41.20;102351.13;5082927;27;45269;-69
2022/08/06 06:41:42;;;;;;;;;2.00;2.00;;;;;21.33;41.48;102370.63;5087237;27;46460;-69
2022/08/06 06:44:07;;;;;;;;;2.67;2.00;;;;;21.38;41.14;102366.47;5093339;27;45259;-69
2022/08/06 06:46:38;;;;;;;;;2.00;2.00;;;;;21.36;40.67;102372.19;5085388;27;45246;-69
2022/08/06 06:49:18;;;;;;;;;3.67;1.33;;;;;21.26;40.34;102352.16;5093317;27;45355;-69
2022/08/06 06:51:49;;;;;;;;;1.67;1.67;;;;;21.29;40.32;102368.41;5089249;27;45656;-68
2022/08/06 06:54:24;;;;;;;;;2.33;2.33;;;;;21.32;40.13;102370.84;5101126;27;45180;-69
2022/08/06 06:56:54;;;;;;;;;2.00;2.00;;;;;21.48;40.55;102362.44;5090221;27;45403;-70
2022/08/06 06:59:24;;;;;;;;;0.67;0.67;;;;;21.51;39.29;102363.97;5094656;27;45372;-69
2022/08/06 07:01:52;;;;;;;;;5.00;5.00;;;;;21.32;39.95;102370.84;5089367;27;46053;-69
2022/08/06 07:04:18;;;;;;;;;2.00;2.00;;;;;21.62;39.45;102356.16;5091843;27;45407;-69
2022/08/06 07:06:47;;;;;;;;;1.00;1.00;;;;;21.73;38.67;102360.41;5089346;27;45546;-69
2022/08/06 07:09:24;;;;;;;;;2.33;1.67;;;;;21.74;38.85;102374.06;5094421;27;45385;-69
2022/08/06 07:11:53;;;;;;;;;1.00;1.00;;;;;21.81;38.23;102371.41;5094703;27;46309;-68
2022/08/06 07:14:21;;;;;;;;;3.67;1.67;;;;;21.87;38.25;102370.69;5092394;27;45156;-69
2022/08/06 07:16:48;;;;;;;;;1.00;1.00;;;;;22.09;38.09;102375.41;5096877;27;45521;-69
2022/08/06 07:19:16;;;;;;;;;3.00;3.00;;;;;22.32;37.25;102380.06;5079064;28;45512;-69
2022/08/06 07:21:43;;;;;;;;;2.00;2.00;;;;;22.53;36.93;102394.06;5082063;27;46484;-69
2022/08/06 07:24:11;;;;;;;;;2.00;2.00;;;;;22.63;36.17;102394.69;5090028;27;45405;-69
2022/08/06 07:26:41;;;;;;;;;1.67;1.67;;;;;22.64;36.18;102384.47;5088160;27;45479;-69
2022/08/06 07:29:09;;;;;;;;;2.00;2.00;;;;;22.85;36.27;102395.69;5103423;27;45251;-69
2022/08/06 07:31:35;;;;;;;;;1.67;0.67;;;;;22.96;35.28;102389.66;5090163;27;45437;-69
2022/08/06 07:34:01;;;;;;;;;2.67;1.33;;;;;22.59;34.70;102387.78;5103481;27;45404;-69
2022/08/06 07:36:31;;;;;;;;;1.00;1.00;;;;;22.68;34.74;102396.88;5091211;27;45393;-69
2022/08/06 07:39:03;;;;;;;;;1.00;1.00;;;;;22.73;34.55;102386.06;5098676;27;45152;-69
2022/08/06 07:41:29;;;;;;;;;1.00;1.00;;;;;23.01;34.86;102397.44;5086191;27;45323;-69
2022/08/06 07:44:00;;;;;;;;;1.00;1.00;;;;;23.06;34.51;102390.25;5091233;27;45375;-69
2022/08/06 07:46:30;;;;;;;;;3.00;2.00;;;;;23.04;34.58;102381.28;5098575;27;45484;-69
2022/08/06 07:49:00;;;;;;;;;1.00;1.00;;;;;22.97;35.03;102387.75;5102512;27;45526;-69
2022/08/06 07:51:29;;;;;;;;;2.00;2.00;;;;;22.88;35.18;102392.53;5095431;27;45466;-69
2022/08/06 07:53:55;;;;;;;;;3.00;1.00;;;;;22.72;34.83;102378.84;5078266;27;45294;-69
2022/08/06 07:56:22;;;;;;;;;1.00;1.00;;;;;22.80;35.19;102382.38;5085163;27;45364;-69
2022/08/06 07:58:48;;;;;;;;;3.00;0.67;;;;;23.18;33.86;102388.72;5096163;27;45385;-69
2022/08/06 08:01:14;;;;;;;;;2.00;0.33;;;;;23.50;33.48;102392.19;5084731;27;45478;-69
2022/08/06 08:06:28;;;;;;;;;3.00;2.00;;;;;23.72;32.07;102387.53;5091982;27;45409;-69
2022/08/06 08:09:08;;;;;;;;;2.33;0.67;;;;;23.80;31.67;102393.84;5099856;27;45320;-69
2022/08/06 08:11:40;;;;;;;;;1.00;1.00;;;;;24.03;31.74;102396.44;5085879;27;45322;-69
2022/08/06 08:14:07;;;;;;;;;0.00;0.00;;;;;24.18;31.96;102394.44;5074688;28;45343;-69
2022/08/06 08:16:33;;;;;;;;;0.00;0.00;;;;;24.34;31.10;102388.66;5067668;27;45398;-69
2022/08/06 08:18:59;;;;;;;;;1.00;1.00;;;;;24.32;30.09;102387.16;5098284;27;45160;-69
2022/08/06 08:21:25;;;;;;;;;0.00;0.00;;;;;24.51;30.34;102400.38;5094215;27;45360;-69
2022/08/06 08:23:51;;;;;;;;;1.00;1.00;;;;;24.47;29.81;102393.50;5096979;27;45365;-69
2022/08/06 08:26:17;;;;;;;;;1.00;1.00;;;;;24.49;30.08;102402.47;5087522;27;45347;-69
2022/08/06 08:28:43;;;;;;;;;0.67;0.67;;;;;24.79;29.64;102401.22;5099354;27;45377;-69
2022/08/06 08:31:08;;;;;;;;;1.00;1.00;;;;;24.57;30.04;102390.34;5082616;27;45752;-69
2022/08/06 08:33:34;;;;;;;;;2.33;1.00;;;;;24.71;30.25;102400.53;5099397;27;45305;-69
2022/08/06 08:36:01;;;;;;;;;0.00;0.00;;;;;25.19;30.53;102398.78;5084094;27;45415;-69
2022/08/06 08:38:35;;;;;;;;;2.33;2.33;;;;;25.48;28.64;102395.72;5098875;27;45590;-69
2022/08/06 08:41:08;;;;;;;;;0.67;0.00;;;;;25.41;28.31;102396.75;5084163;27;45374;-69
2022/08/06 08:43:39;;;;;;;;;1.00;1.00;;;;;25.17;28.31;102395.31;5094055;27;45479;-69
2022/08/06 08:46:07;;;;;;;;;1.00;1.00;;;;;25.26;28.18;102384.91;5066260;28;45312;-69
2022/08/06 08:48:34;;;;;;;;;1.00;1.00;;;;;25.55;27.95;102385.47;5095133;27;45432;-69
2022/08/06 08:51:01;;;;;;;;;1.00;1.00;;;;;25.65;26.75;102395.38;5085860;27;45481;-69
2022/08/06 08:53:36;;;;;;;;;1.00;0.00;;;;;25.72;26.65;102385.13;5100639;27;45379;-69
2022/08/06 08:56:02;;;;;;;;;1.00;1.00;;;;;25.70;26.58;102378.91;5068030;27;45340;-69
2022/08/06 08:58:28;;;;;;;;;0.00;0.00;;;;;25.73;26.61;102372.91;5092317;27;45610;-69
2022/08/06 09:00:54;;;;;;;;;0.00;0.00;;;;;26.01;26.80;102372.81;5092455;27;46500;-69
2022/08/06 09:03:20;;;;;;;;;1.00;1.00;;;;;26.40;26.72;102372.84;5091224;27;45677;-69
2022/08/06 09:05:45;;;;;;;;;1.00;1.00;;;;;26.67;26.34;102379.28;5090273;27;45429;-69
2022/08/06 09:08:11;;;;;;;;;2.67;1.00;;;;;26.97;26.00;102380.56;5097422;27;45516;-69
2022/08/06 09:10:37;;;;;;;;;0.67;0.67;;;;;27.00;25.59;102382.94;5087814;27;46378;-69
2022/08/06 09:13:03;;;;;;;;;0.00;0.00;;;;;27.19;25.92;102385.88;5099694;27;45484;-70
2022/08/06 09:15:29;;;;;;;;;1.33;1.33;;;;;27.08;25.04;102368.75;5076961;27;45493;-69
2022/08/06 09:17:54;;;;;;;;;1.00;1.00;;;;;27.34;24.27;102386.47;5083262;27;45330;-69
2022/08/06 09:20:20;;;;;;;;;0.00;0.00;;;;;27.38;24.60;102396.16;5086931;27;46560;-69
2022/08/06 09:22:50;;;;;;;;;0.67;0.67;;;;;27.46;23.63;102390.31;5077447;27;45371;-69
2022/08/06 09:25:34;;;;;;;;;0.00;0.00;;;;;27.60;24.32;102394.81;5090755;27;45319;-69
2022/08/06 09:27:59;;;;;;;;;1.00;1.00;;;;;27.91;24.08;102382.81;5099057;27;45528;-69
2022/08/06 09:30:26;;;;;;;;;2.00;2.00;;;;;28.18;24.09;102391.94;5090328;27;45498;-69
2022/08/06 09:32:54;;;;;;;;;2.00;2.00;;;;;28.45;23.84;102395.38;5082624;27;45369;-69
2022/08/06 09:35:23;;;;;;;;;0.33;0.33;;;;;28.55;22.85;102392.94;5087195;27;45297;-69
2022/08/06 09:37:50;;;;;;;;;1.00;1.00;;;;;28.56;22.58;102403.91;5096201;27;45572;-69
2022/08/06 09:40:19;;;;;;;;;0.00;0.00;;;;;28.72;23.33;102390.41;5087531;27;45440;-69
2022/08/06 09:42:50;;;;;;;;;1.00;1.00;;;;;29.05;22.69;102379.78;5095637;27;45247;-69
2022/08/06 09:45:17;;;;;;;;;1.00;1.00;;;;;28.74;22.19;102383.50;5088564;27;45465;-69
2022/08/06 09:48:00;;;;;;;;;0.33;0.33;;;;;28.71;22.73;102383.13;5095621;27;45329;-69
2022/08/06 09:50:43;;;;;;;;;2.00;2.00;;;;;28.41;22.14;102383.81;5088240;27;45515;-69
2022/08/06 09:53:10;;;;;;;;;0.67;0.67;;;;;28.02;22.59;102381.25;5086731;27;45353;-69
2022/08/06 09:55:35;;;;;;;;;2.00;1.00;;;;;28.88;22.34;102385.13;5089794;27;45448;-69
2022/08/06 09:58:01;;;;;;;;;1.00;1.00;;;;;29.04;21.28;102381.72;5093794;27;45445;-69
2022/08/06 10:00:29;;;;;;;;;0.67;0.67;;;;;29.48;21.43;102385.34;5090408;27;46210;-69
2022/08/06 10:02:59;;;;;;;;;1.00;1.00;;;;;29.70;20.41;102380.97;5094118;27;45354;-69
2022/08/06 10:05:26;;;;;;;;;0.67;0.67;;;;;29.99;21.26;102381.25;5100138;27;45389;-69
2022/08/06 10:08:08;;;;;;;;;1.00;1.00;;;;;29.83;20.98;102385.53;5081083;27;45517;-68
2022/08/06 10:10:48;;;;;;;;;2.00;0.00;;;;;29.91;20.96;102385.19;5087960;27;45422;-70
2022/08/06 10:13:15;;;;;;;;;0.00;0.00;;;;;28.83;21.67;102378.50;5096826;27;45658;-69
2022/08/06 10:15:43;;;;;;;;;1.00;1.00;;;;;28.83;22.26;102378.50;5091990;27;45424;-70
2022/08/06 10:18:08;;;;;;;;;1.00;1.00;;;;;28.65;21.72;102379.28;5097914;27;45532;-69
2022/08/06 10:20:34;;;;;;;;;1.00;1.00;;;;;28.99;21.88;102384.38;5083168;27;47699;-69
2022/08/06 10:23:00;;;;;;;;;2.00;0.00;;;;;29.33;21.75;102371.72;5094052;27;45362;-69
2022/08/06 10:25:29;;;;;;;;;0.33;0.33;;;;;29.57;22.10;102377.50;5069916;27;45410;-69
2022/08/06 10:27:56;;;;;;;;;0.67;0.67;;;;;30.24;21.37;102372.69;5098760;27;45534;-69
2022/08/06 10:30:21;;;;;;;;;1.33;1.33;;;;;30.53;20.13;102372.66;5078120;28;48038;-69
2022/08/06 10:32:53;;;;;;;;;1.00;1.00;;;;;30.77;20.52;102381.91;5095397;27;45321;-69
2022/08/06 10:35:21;;;;;;;;;1.00;1.00;;;;;30.77;20.48;102373.50;5098079;27;45372;-69
2022/08/06 10:37:53;;;;;;;;;1.00;1.00;;;;;31.17;19.29;102369.97;5096483;27;45346;-69
2022/08/06 10:40:20;;;;;;;;;1.00;1.00;;;;;31.39;19.81;102368.22;5096867;27;46256;-68
2022/08/06 10:42:46;;;;;;;;;1.00;1.00;;;;;31.65;19.29;102362.06;5101481;27;45307;-69
2022/08/06 10:45:13;;;;;;;;;3.00;2.00;;;;;31.45;18.24;102350.38;5101028;27;45521;-69
2022/08/06 10:47:40;;;;;;;;;4.00;4.00;;;;;31.56;19.77;102360.72;5102067;27;45549;-69
2022/08/06 10:50:07;;;;;;;;;4.00;2.00;;;;;31.86;18.93;102368.94;5101743;27;45507;-69
2022/08/06 10:52:34;;;;;;;;;2.00;2.00;;;;;31.40;18.12;102349.41;5083841;27;45446;-69
2022/08/06 10:55:00;;;;;;;;;1.00;1.00;;;;;30.35;19.81;102350.25;5091307;27;45469;-69
2022/08/06 10:57:26;;;;;;;;;2.00;2.00;;;;;30.76;19.22;102356.91;5075216;27;45387;-69
2022/08/06 10:59:52;;;;;;;;;2.00;2.00;;;;;30.35;18.83;102347.44;5095882;27;45395;-69
2022/08/06 11:02:39;;;;;;;;;1.00;1.00;;;;;30.41;19.38;102348.44;5092616;27;47822;-69
2022/08/06 11:05:11;;;;;;;;;1.00;1.00;;;;;29.95;19.38;102350.06;5093071;27;45411;-69
2022/08/06 11:08:13;;;;;;;;;2.00;1.00;;;;;29.58;19.75;102343.66;5096068;27;45300;-69
2022/08/06 11:11:01;;;;;;;;;2.00;1.67;;;;;30.39;19.31;102333.81;5067147;28;46240;-69
2022/08/06 11:13:31;;;;;;;;;2.00;2.00;;;;;30.83;19.01;102336.03;5098478;27;45747;-69
2022/08/06 11:15:57;;;;;;;;;2.00;2.00;;;;;30.51;18.99;102335.56;5103621;27;45256;-69
2022/08/06 11:18:22;;;;;;;;;1.67;1.33;;;;;31.12;19.04;102331.44;5099375;27;45529;-68
2022/08/06 11:20:49;;;;;;;;;1.00;1.00;;;;;30.56;18.79;102341.28;5083689;27;46144;-68
2022/08/06 11:23:14;;;;;;;;;0.00;0.00;;;;;30.56;19.21;102340.44;5098200;27;45467;-69
2022/08/06 11:25:45;;;;;;;;;2.00;2.00;;;;;31.37;18.63;102328.28;5096440;27;45305;-70
2022/08/06 11:28:12;;;;;;;;;5.00;3.00;;;;;31.56;18.60;102335.41;5099801;27;45567;-68
2022/08/06 11:30:51;;;;;;;;;1.00;1.00;;;;;31.79;18.53;102309.22;5097150;27;46731;-69
2022/08/06 11:33:32;;;;;;;;;1.00;1.00;;;;;31.18;18.12;102312.72;5098380;27;45329;-69
2022/08/06 11:35:57;;;;;;;;;2.00;1.00;;;;;30.90;19.14;102319.91;5087178;27;45462;-69
2022/08/06 11:38:48;;;;;;;;;1.67;1.33;;;;;30.66;18.55;102326.66;5092687;27;45451;-69